Time;durP1;ratioP1;P1;durP2;ratioP2;P2;SDS_P1;SDS_P2;PMS_P1;PMS_P2;Temp;Humidity;BMP_temperature;BMP_pressure;BME280_temperature;BME280_humidity;BME280_pressure;Samples;Min_cycle;Max_cycle;Signal;HPM_P1;HPM_P2
2021/12/27 00:02:06;;;;;;;33.70;22.83;;;;;;;2.47;100.00;100252.34;5096257;28;20122;-36
2021/12/27 00:04:32;;;;;;;41.45;24.50;;;;;;;2.47;100.00;100252.34;5095476;28;20042;-36
2021/12/27 00:06:58;;;;;;;34.85;23.40;;;;;;;2.45;100.00;100241.84;5095270;28;20028;-35
2021/12/27 00:09:23;;;;;;;34.33;22.43;;;;;;;2.49;100.00;100250.28;5095565;28;20039;-36
2021/12/27 00:11:48;;;;;;;36.00;22.97;;;;;;;2.51;100.00;100248.25;5095817;28;20357;-36
2021/12/27 00:14:14;;;;;;;37.07;24.33;;;;;;;2.48;100.00;100248.63;5095876;28;20470;-36
2021/12/27 00:16:39;;;;;;;36.30;23.77;;;;;;;2.46;100.00;100240.00;5094883;28;20024;-36
2021/12/27 00:19:05;;;;;;;34.77;23.77;;;;;;;2.51;100.00;100245.59;5094883;28;20056;-36
2021/12/27 00:21:30;;;;;;;36.27;24.43;;;;;;;2.51;100.00;100249.09;5094781;28;20395;-36
2021/12/27 00:23:55;;;;;;;37.43;23.80;;;;;;;2.51;100.00;100249.09;5094839;28;20024;-36
2021/12/27 00:26:21;;;;;;;35.40;22.43;;;;;;;2.45;100.00;100228.53;5094935;28;20028;-36
2021/12/27 00:28:46;;;;;;;32.40;22.03;;;;;;;2.56;100.00;100240.50;5094724;28;20054;-36
2021/12/27 00:31:12;;;;;;;37.77;23.70;;;;;;;2.55;100.00;100236.19;5094932;28;20432;-36
2021/12/27 00:33:37;;;;;;;33.07;22.60;;;;;;;2.58;100.00;100238.44;5095138;28;20020;-36
2021/12/27 00:36:03;;;;;;;34.60;22.67;;;;;;;2.55;100.00;100238.84;5094862;28;20031;-36
2021/12/27 00:38:28;;;;;;;34.88;22.17;;;;;;;2.57;100.00;100232.28;5094750;28;20020;-35
2021/12/27 00:40:54;;;;;;;36.67;23.97;;;;;;;2.57;100.00;100234.13;5094594;28;20036;-36
2021/12/27 00:43:20;;;;;;;32.10;22.63;;;;;;;2.59;100.00;100224.13;5095014;28;20158;-36
2021/12/27 00:45:45;;;;;;;33.20;22.52;;;;;;;2.60;100.00;100217.75;5094901;28;20035;-36
2021/12/27 00:48:11;;;;;;;34.15;22.67;;;;;;;2.61;100.00;100213.22;5094486;28;20387;-36
2021/12/27 00:50:36;;;;;;;33.67;22.57;;;;;;;2.64;100.00;100223.53;5094491;28;20048;-36
2021/12/27 00:53:02;;;;;;;33.83;21.60;;;;;;;2.63;100.00;100212.00;5094616;28;20024;-36
2021/12/27 00:55:27;;;;;;;33.70;23.27;;;;;;;2.60;100.00;100199.06;5094211;28;20106;-36
2021/12/27 00:57:53;;;;;;;34.07;21.40;;;;;;;2.65;100.00;100201.16;5094111;28;20028;-36
2021/12/27 01:00:20;;;;;;;37.35;24.17;;;;;;;2.65;100.00;100196.63;5094820;28;20326;-36
2021/12/27 01:02:46;;;;;;;34.78;23.52;;;;;;;2.69;100.00;100197.06;5094195;28;20028;-36
2021/12/27 01:05:12;;;;;;;35.63;23.00;;;;;;;2.67;100.00;100189.25;5094119;28;20070;-36
2021/12/27 01:07:38;;;;;;;33.63;22.92;;;;;;;2.70;100.00;100196.06;5093799;28;20031;-36
2021/12/27 01:10:28;;;;;;;32.55;22.40;;;;;;;2.69;100.00;100195.22;5094352;28;20028;-36
2021/12/27 01:13:05;;;;;;;37.47;24.60;;;;;;;2.69;100.00;100194.41;5094130;28;20383;-36
2021/12/27 01:18:05;;;;;;;33.75;22.63;;;;;;;2.71;100.00;100185.16;5094516;28;20039;-36
2021/12/27 01:20:30;;;;;;;31.63;22.45;;;;;;;2.75;100.00;100204.28;5093684;28;20032;-36
2021/12/27 01:22:57;;;;;;;34.67;22.85;;;;;;;2.69;100.00;100181.88;5093484;28;20020;-36
2021/12/27 01:25:23;;;;;;;33.75;22.65;;;;;;;2.75;100.00;100197.09;5094335;28;20036;-36
2021/12/27 01:27:51;;;;;;;31.33;21.70;;;;;;;2.76;100.00;100190.75;5094107;28;20043;-36
2021/12/27 01:30:19;;;;;;;35.30;22.40;;;;;;;2.67;100.00;100177.75;5094157;28;20055;-36
2021/12/27 01:32:50;;;;;;;33.40;22.90;;;;;;;2.72;100.00;100173.47;5092158;28;20051;-36
2021/12/27 01:35:16;;;;;;;33.60;22.17;;;;;;;2.80;100.00;100178.66;5093546;28;20110;-36
2021/12/27 01:37:41;;;;;;;;;;;;;;;2.84;100.00;100179.91;5093636;28;20467;-36
2021/12/27 01:40:08;;;;;;;28.88;21.17;;;;;;;2.75;100.00;100165.06;5093788;28;19958;-36
2021/12/27 01:42:33;;;;;;;29.77;21.05;;;;;;;2.81;100.00;100164.28;5093592;28;20035;-36
2021/12/27 01:44:59;;;;;;;30.10;21.23;;;;;;;2.77;100.00;100160.34;5094211;28;20107;-36
2021/12/27 01:47:27;;;;;;;31.40;20.93;;;;;;;2.87;100.00;100168.00;5093304;28;20434;-36
2021/12/27 01:49:52;;;;;;;30.23;20.95;;;;;;;2.80;100.00;100165.31;5093575;28;20068;-36
2021/12/27 01:52:17;;;;;;;33.03;21.40;;;;;;;2.87;100.00;100170.66;5093616;28;20102;-36
2021/12/27 01:54:43;;;;;;;30.90;20.73;;;;;;;2.89;100.00;100173.16;5093089;28;20030;-36
2021/12/27 01:57:08;;;;;;;31.77;20.87;;;;;;;2.90;100.00;100172.13;5093320;28;20485;-36
2021/12/27 01:59:33;;;;;;;29.37;20.93;;;;;;;2.89;100.00;100173.97;5093297;28;20024;-36
2021/12/27 02:01:59;;;;;;;32.87;22.23;;;;;;;2.91;100.00;100171.94;5092865;28;20025;-36
2021/12/27 02:04:24;;;;;;;30.00;20.20;;;;;;;2.93;100.00;100177.06;5093431;28;20106;-36
2021/12/27 02:06:49;;;;;;;26.47;19.97;;;;;;;2.93;100.00;100175.25;5093032;28;20146;-36
2021/12/27 02:09:20;;;;;;;27.23;19.20;;;;;;;2.96;100.00;100171.34;5093451;28;20487;-36
2021/12/27 02:11:47;;;;;;;34.75;21.50;;;;;;;2.86;100.00;100155.66;5093784;28;20074;-36
2021/12/27 02:14:12;;;;;;;29.58;21.05;;;;;;;2.97;100.00;100168.47;5093554;28;20044;-36
2021/12/27 02:16:37;;;;;;;32.93;22.37;;;;;;;2.97;100.00;100164.97;5093314;28;20387;-36
2021/12/27 02:19:03;;;;;;;30.63;20.57;;;;;;;3.02;100.00;100159.84;5093266;28;20048;-36
2021/12/27 02:21:28;;;;;;;28.75;20.08;;;;;;;3.00;100.00;100164.59;5092773;28;20543;-36
2021/12/27 02:23:54;;;;;;;28.87;20.00;;;;;;;3.00;100.00;100167.25;5092912;28;20406;-36
2021/12/27 02:26:21;;;;;;;31.65;21.75;;;;;;;2.90;100.00;100156.13;5092576;28;20028;-36
2021/12/27 02:28:47;;;;;;;31.08;21.90;;;;;;;2.96;100.00;100155.31;5093246;28;20086;-36
2021/12/27 02:31:14;;;;;;;33.78;21.92;;;;;;;2.94;100.00;100152.03;5093217;28;20024;-36
2021/12/27 02:33:40;;;;;;;29.88;19.85;;;;;;;2.96;100.00;100144.63;5092760;28;20028;-36
2021/12/27 02:36:06;;;;;;;;;;;;;;;3.06;100.00;100158.44;5094151;28;20031;-36
2021/12/27 02:38:34;;;;;;;29.83;19.55;;;;;;;3.06;100.00;100158.44;5093239;28;19915;-36
2021/12/27 02:41:00;;;;;;;31.60;21.25;;;;;;;3.03;100.00;100164.19;5092896;28;20020;-36
2021/12/27 02:43:31;;;;;;;31.58;21.83;;;;;;;2.82;100.00;100125.88;5092944;28;20028;-36
2021/12/27 02:46:02;;;;;;;30.08;20.45;;;;;;;3.06;100.00;100161.94;5093525;28;20025;-36
2021/12/27 02:48:33;;;;;;;31.15;19.25;;;;;;;3.09;100.00;100163.41;5093573;28;20028;-36
2021/12/27 02:50:58;;;;;;;28.65;19.48;;;;;;;3.09;100.00;100161.53;5093264;28;20035;-36
2021/12/27 02:53:26;;;;;;;28.33;19.67;;;;;;;3.10;100.00;100157.03;5092851;28;20024;-36
2021/12/27 02:55:53;;;;;;;29.88;20.80;;;;;;;3.10;100.00;100152.50;5091679;28;20079;-36
2021/12/27 02:58:19;;;;;;;33.95;20.88;;;;;;;3.05;100.00;100140.78;5092946;28;20029;-36
2021/12/27 03:01:07;;;;;;;29.42;20.70;;;;;;;3.09;100.00;100134.00;5092818;28;20366;-36
2021/12/27 03:03:32;;;;;;;28.80;19.50;;;;;;;3.10;100.00;100141.81;5092568;28;20424;-36
2021/12/27 03:05:58;;;;;;;36.00;20.50;;;;;;;3.14;100.00;100136.09;5094019;28;20150;-36
2021/12/27 03:08:24;;;;;;;29.25;20.35;;;;;;;3.15;100.00;100135.88;5096431;28;20057;-36
2021/12/27 03:10:52;;;;;;;32.47;21.35;;;;;;;3.16;100.00;100132.19;5096704;28;20384;-36
2021/12/27 03:13:48;;;;;;;32.75;22.00;;;;;;;3.16;100.00;100132.19;5096764;28;20047;-36
2021/12/27 03:16:16;;;;;;;31.08;20.42;;;;;;;3.13;100.00;100121.91;5096058;28;20043;-35
2021/12/27 03:18:44;;;;;;;28.30;19.48;;;;;;;3.19;100.00;100134.47;5096537;28;20040;-35
2021/12/27 03:21:10;;;;;;;32.13;20.95;;;;;;;3.21;100.00;100128.91;5096337;28;20028;-36
2021/12/27 03:23:37;;;;;;;30.55;20.30;;;;;;;3.25;100.00;100122.97;5096757;28;20320;-36
2021/12/27 03:26:04;;;;;;;31.40;20.48;;;;;;;3.19;100.00;100129.13;5095890;28;20544;-36
2021/12/27 03:28:29;;;;;;;32.60;21.35;;;;;;;3.21;100.00;100127.06;5095060;28;20024;-36
2021/12/27 03:30:57;;;;;;;33.63;22.67;;;;;;;3.21;100.00;100132.41;5095880;28;20085;-36
2021/12/27 03:33:23;;;;;;;33.28;21.90;;;;;;;3.22;100.00;100127.88;5094652;28;20452;-36
2021/12/27 03:36:04;;;;;;;30.23;21.40;;;;;;;3.21;100.00;100128.91;5095732;28;20111;-36
2021/12/27 03:38:33;;;;;;;31.33;21.00;;;;;;;3.23;100.00;100119.69;5096225;28;20421;-36
2021/12/27 03:40:58;;;;;;;31.80;20.45;;;;;;;3.28;100.00;100121.75;5096354;28;20032;-36
2021/12/27 03:43:24;;;;;;;33.38;19.60;;;;;;;3.31;100.00;100127.50;5095750;28;20085;-36
2021/12/27 03:45:49;;;;;;;30.30;20.83;;;;;;;3.22;100.00;100107.34;5096294;28;20032;-36
2021/12/27 03:48:15;;;;;;;30.10;19.83;;;;;;;3.28;100.00;100119.06;5095745;28;20060;-36
2021/12/27 03:50:40;;;;;;;34.33;21.73;;;;;;;3.31;100.00;100113.31;5095733;28;20144;-36
2021/12/27 03:53:07;;;;;;;31.73;21.10;;;;;;;3.33;100.00;100117.44;5095910;28;20032;-36
2021/12/27 03:55:32;;;;;;;31.50;20.35;;;;;;;3.36;100.00;100114.34;5095585;28;20024;-36
2021/12/27 03:58:07;;;;;;;29.00;21.17;;;;;;;3.32;100.00;100102.44;5095514;28;20032;-36
2021/12/27 04:01:00;;;;;;;32.33;21.35;;;;;;;3.39;100.00;100107.78;5095433;28;20300;-36
2021/12/27 04:03:26;;;;;;;33.72;21.23;;;;;;;3.40;100.00;100100.59;5095274;28;20421;-36
2021/12/27 04:05:52;;;;;;;30.45;20.60;;;;;;;3.38;100.00;100097.31;5095638;28;20418;-36
2021/12/27 04:08:18;;;;;;;31.50;20.70;;;;;;;3.25;100.00;100072.19;5095701;28;20024;-37
2021/12/27 04:10:44;;;;;;;28.30;19.63;;;;;;;3.45;100.00;100084.78;5094134;28;20119;-36
2021/12/27 04:13:11;;;;;;;31.42;20.80;;;;;;;3.45;100.00;100095.47;5093918;28;20437;-36
2021/12/27 04:15:38;;;;;;;31.63;20.35;;;;;;;3.43;100.00;100094.84;5095582;28;20032;-36
2021/12/27 04:18:05;;;;;;;30.45;20.55;;;;;;;3.25;100.00;100053.50;5094202;28;20036;-36
2021/12/27 04:20:31;;;;;;;30.17;20.50;;;;;;;3.49;100.00;100083.34;5095470;28;20066;-36
2021/12/27 04:22:56;;;;;;;29.70;21.17;;;;;;;3.51;100.00;100078.59;5095017;28;20148;-36
2021/12/27 04:25:22;;;;;;;31.60;20.57;;;;;;;3.52;100.00;100074.94;5095818;28;20513;-36
2021/12/27 04:27:49;;;;;;;32.00;20.90;;;;;;;3.53;100.00;100074.72;5094833;28;20035;-36
2021/12/27 04:30:16;;;;;;;27.95;19.38;;;;;;;3.53;100.00;100071.22;5094735;28;20035;-36
2021/12/27 04:32:41;;;;;;;33.25;21.35;;;;;;;3.54;100.00;100064.84;5095218;28;20036;-36
2021/12/27 04:35:08;;;;;;;30.13;20.27;;;;;;;3.50;100.00;100059.06;5094645;28;20495;-36
2021/12/27 04:37:34;;;;;;;30.77;20.88;;;;;;;3.45;100.00;100050.03;5095241;28;20594;-36
2021/12/27 04:40:00;;;;;;;28.67;20.40;;;;;;;3.56;100.00;100060.97;5095626;28;20035;-36
2021/12/27 04:42:27;;;;;;;32.35;20.67;;;;;;;3.56;100.00;100062.78;5094390;28;20020;-36
2021/12/27 04:44:52;;;;;;;28.02;20.27;;;;;;;3.57;100.00;100057.25;5094676;28;20064;-36
2021/12/27 04:47:18;;;;;;;32.03;21.03;;;;;;;3.58;100.00;100058.06;5094327;28;20495;-36
2021/12/27 04:49:43;;;;;;;34.05;22.60;;;;;;;3.57;100.00;100053.75;5094517;28;20079;-36
2021/12/27 04:52:10;;;;;;;29.08;20.10;;;;;;;3.59;100.00;100047.16;5094302;28;20031;-36
2021/12/27 04:54:39;;;;;;;30.23;20.52;;;;;;;3.56;100.00;100049.41;5094496;28;20028;-36
2021/12/27 04:57:04;;;;;;;29.02;20.65;;;;;;;3.50;100.00;100043.03;5093790;28;20054;-36
2021/12/27 04:59:30;;;;;;;29.02;19.38;;;;;;;3.60;100.00;100058.69;5094110;28;20028;-40
2021/12/27 05:01:56;;;;;;;29.77;19.90;;;;;;;3.61;100.00;100049.63;5095194;28;20056;-36
2021/12/27 05:04:21;;;;;;;27.95;19.95;;;;;;;3.49;100.00;100033.38;5094069;28;20059;-36
2021/12/27 05:06:46;;;;;;;28.57;19.43;;;;;;;3.65;100.00;100058.06;5094204;28;20028;-36
2021/12/27 05:09:12;;;;;;;30.30;20.93;;;;;;;3.65;100.00;100064.22;5094474;28;20049;-36
2021/12/27 05:11:37;;;;;;;27.17;19.53;;;;;;;3.66;100.00;100051.69;5093933;28;20066;-36
2021/12/27 05:14:03;;;;;;;29.27;19.60;;;;;;;3.69;100.00;100054.78;5094681;28;20064;-36
2021/12/27 05:16:28;;;;;;;28.05;19.15;;;;;;;3.70;100.00;100050.25;5094079;28;20495;-36
2021/12/27 05:18:54;;;;;;;30.13;20.87;;;;;;;3.70;100.00;100045.72;5092293;28;20093;-36
2021/12/27 05:21:19;;;;;;;28.77;20.13;;;;;;;3.69;100.00;100041.41;5094722;28;20024;-36
2021/12/27 05:23:44;;;;;;;30.33;20.23;;;;;;;3.68;100.00;100047.78;5094678;28;20107;-36
2021/12/27 05:26:10;;;;;;;30.27;20.10;;;;;;;3.71;100.00;100042.03;5092458;28;20043;-36
2021/12/27 05:28:35;;;;;;;30.25;20.17;;;;;;;3.74;100.00;100038.13;5093619;28;20031;-36
2021/12/27 05:31:01;;;;;;;30.83;20.13;;;;;;;3.73;100.00;100034.63;5093227;28;20058;-36
2021/12/27 05:33:26;;;;;;;31.27;20.43;;;;;;;3.72;100.00;100027.63;5094388;28;20494;-36
2021/12/27 05:35:51;;;;;;;32.37;22.40;;;;;;;3.75;100.00;100037.09;5092199;28;20032;-36
2021/12/27 05:38:17;;;;;;;29.67;20.40;;;;;;;3.79;100.00;100036.47;5092703;28;20035;-36
2021/12/27 05:40:42;;;;;;;28.93;19.93;;;;;;;3.78;100.00;100032.16;5094213;28;20052;-36
2021/12/27 05:43:08;;;;;;;33.43;21.70;;;;;;;3.79;100.00;100031.13;5093516;28;20046;-36
2021/12/27 05:45:35;;;;;;;26.73;19.27;;;;;;;3.73;100.00;100015.09;5093977;28;20073;-36
2021/12/27 05:48:01;;;;;;;29.20;20.35;;;;;;;3.82;100.00;100038.75;5093420;28;20032;-36
2021/12/27 05:50:26;;;;;;;28.38;19.65;;;;;;;3.74;100.00;100019.41;5094322;28;20111;-36
2021/12/27 05:52:52;;;;;;;28.73;19.63;;;;;;;3.86;100.00;100031.94;5093896;28;20020;-36
2021/12/27 05:55:17;;;;;;;28.58;18.63;;;;;;;3.87;100.00;100035.44;5093816;28;20031;-36
2021/12/27 05:57:43;;;;;;;27.97;19.10;;;;;;;3.79;100.00;100028.44;5093737;28;20372;-36
2021/12/27 06:00:10;;;;;;;25.97;18.33;;;;;;;3.85;100.00;100024.13;5093919;28;20043;-36
2021/12/27 06:02:36;;;;;;;30.25;20.08;;;;;;;3.88;100.00;100031.75;5093070;28;20150;-36
2021/12/27 06:05:01;;;;;;;30.57;20.00;;;;;;;3.91;100.00;100036.69;5093962;28;20057;-36
2021/12/27 06:07:27;;;;;;;28.10;19.10;;;;;;;3.94;100.00;100038.09;5093227;28;20089;-37
2021/12/27 06:09:52;;;;;;;26.87;19.43;;;;;;;3.97;100.00;100041.19;5093898;28;20478;-36
2021/12/27 06:12:17;;;;;;;26.10;18.60;;;;;;;3.98;100.00;100042.84;5091965;28;20031;-36
2021/12/27 06:14:43;;;;;;;27.37;19.17;;;;;;;3.99;100.00;100038.31;5093946;28;20042;-36
2021/12/27 06:17:08;;;;;;;25.50;18.80;;;;;;;4.02;100.00;100043.25;5093511;28;20102;-36
2021/12/27 06:19:34;;;;;;;30.90;20.07;;;;;;;4.02;100.00;100043.25;5093540;28;20372;-36
2021/12/27 06:21:59;;;;;;;24.35;18.13;;;;;;;3.96;100.00;100025.38;5093085;28;20428;-36
2021/12/27 06:24:24;;;;;;;24.97;17.87;;;;;;;4.05;100.00;100038.31;5093477;28;20046;-36
2021/12/27 06:26:50;;;;;;;25.70;18.77;;;;;;;4.02;100.00;100016.50;5092977;28;20039;-36
2021/12/27 06:29:16;;;;;;;25.05;18.63;;;;;;;4.01;100.00;100020.22;5093633;28;20032;-36
2021/12/27 06:31:41;;;;;;;28.83;20.20;;;;;;;4.12;100.00;100043.66;5092745;28;20036;-36
2021/12/27 06:34:06;;;;;;;29.27;19.57;;;;;;;4.12;100.00;100035.63;5093401;28;20093;-36
2021/12/27 06:36:32;;;;;;;25.97;18.73;;;;;;;4.06;100.00;100018.56;5092725;28;20081;-37
2021/12/27 06:38:58;;;;;;;29.92;19.70;;;;;;;4.08;100.00;100015.66;5093068;28;20059;-36
2021/12/27 06:41:24;;;;;;;30.17;18.77;;;;;;;4.17;100.00;100029.66;5095586;28;20031;-37
2021/12/27 06:43:50;;;;;;;;;;;;;;;4.19;100.00;100031.06;5097863;28;20024;-36
2021/12/27 06:46:16;;;;;;;30.23;20.33;;;;;;;4.19;100.00;100025.72;5096747;28;19919;-36
2021/12/27 06:48:41;;;;;;;26.20;18.43;;;;;;;4.21;100.00;100021.00;5097015;28;20039;-36
2021/12/27 06:51:06;;;;;;;25.87;18.73;;;;;;;4.07;100.00;100001.47;5096929;28;20028;-35
2021/12/27 06:53:32;;;;;;;29.40;20.60;;;;;;;4.24;100.00;100019.75;5096988;28;20016;-36
2021/12/27 06:55:57;;;;;;;29.27;19.33;;;;;;;4.24;100.00;100014.38;5097510;28;20020;-35
2021/12/27 06:58:24;;;;;;;28.02;19.05;;;;;;;4.28;100.00;100011.06;5096721;28;20467;-36
2021/12/27 07:00:50;;;;;;;28.20;19.58;;;;;;;4.21;100.00;100002.25;5096900;28;20042;-37
2021/12/27 07:03:15;;;;;;;30.40;19.65;;;;;;;4.30;100.00;100014.38;5096969;28;20078;-37
2021/12/27 07:05:41;;;;;;;28.37;18.70;;;;;;;4.33;100.00;100013.13;5096672;28;20453;-36
2021/12/27 07:08:07;;;;;;;25.88;18.80;;;;;;;4.27;100.00;100001.41;5096441;28;20024;-35
2021/12/27 07:10:33;;;;;;;26.33;19.70;;;;;;;4.35;100.00;100000.38;5096783;28;20363;-35
2021/12/27 07:12:59;;;;;;;29.00;19.80;;;;;;;4.37;100.00;100015.19;5097175;28;20040;-35
2021/12/27 07:15:25;;;;;;;32.47;19.75;;;;;;;4.38;100.00;100002.63;5096726;28;20373;-35
2021/12/27 07:17:50;;;;;;;30.05;20.13;;;;;;;4.37;100.00;99993.75;5096075;28;20034;-35
2021/12/27 07:20:16;;;;;;;27.60;18.92;;;;;;;4.39;100.00;99997.06;5096875;28;20028;-36
2021/12/27 07:22:41;;;;;;;25.65;17.42;;;;;;;4.44;100.00;99991.09;5097001;28;20039;-36
2021/12/27 07:25:07;;;;;;;29.73;19.20;;;;;;;4.42;100.00;99989.63;5096138;28;20089;-36
2021/12/27 07:27:33;;;;;;;25.38;18.80;;;;;;;4.37;100.00;99988.41;5095963;28;20035;-37
2021/12/27 07:29:59;;;;;;;26.03;17.90;;;;;;;4.36;100.00;99972.56;5096800;28;20024;-36
2021/12/27 07:32:24;;;;;;;28.45;18.52;;;;;;;4.43;100.00;99991.28;5096753;28;20032;-36
2021/12/27 07:34:50;;;;;;;26.30;18.40;;;;;;;4.46;100.00;99991.69;5094817;28;20032;-36
2021/12/27 07:37:16;;;;;;;31.08;18.85;;;;;;;4.47;100.00;99989.81;5095688;28;20035;-36
2021/12/27 07:39:42;;;;;;;30.30;18.80;;;;;;;4.46;100.00;99985.50;5095736;28;20028;-36
2021/12/27 07:42:08;;;;;;;26.10;17.45;;;;;;;4.48;100.00;99989.59;5096459;28;20372;-36
2021/12/27 07:44:33;;;;;;;27.93;18.37;;;;;;;4.49;100.00;99985.91;5096212;28;20035;-36
2021/12/27 07:46:58;;;;;;;32.03;18.30;;;;;;;4.39;100.00;99975.66;5095762;28;20024;-37
2021/12/27 07:49:24;;;;;;;26.27;18.17;;;;;;;4.48;100.00;99989.59;5096164;28;20303;-36
2021/12/27 07:51:49;;;;;;;27.23;17.80;;;;;;;4.50;100.00;99986.72;5095118;28;20028;-36
2021/12/27 07:54:15;;;;;;;23.73;16.77;;;;;;;4.50;100.00;99995.59;5095274;28;20028;-36
2021/12/27 07:56:40;;;;;;;27.17;17.73;;;;;;;4.30;100.00;99960.84;5095633;28;20059;-36
2021/12/27 07:59:07;;;;;;;25.42;16.75;;;;;;;4.51;100.00;99988.38;5095589;28;20472;-36
2021/12/27 08:01:33;;;;;;;;;;;;;;;4.53;100.00;99991.63;5096036;28;20043;-36
2021/12/27 08:03:59;;;;;;;23.70;17.25;;;;;;;4.39;100.00;99986.34;5095734;28;19919;-36
2021/12/27 08:06:24;;;;;;;23.73;17.77;;;;;;;4.49;100.00;99998.44;5095302;28;20028;-36
2021/12/27 08:08:49;;;;;;;25.93;17.00;;;;;;;4.51;100.00;99997.22;5095207;28;20499;-36
2021/12/27 08:11:15;;;;;;;26.33;16.70;;;;;;;4.52;100.00;99990.00;5094516;28;20047;-36
2021/12/27 08:13:42;;;;;;;21.27;16.27;;;;;;;4.54;100.00;99998.63;5095647;28;20067;-37
2021/12/27 08:16:11;;;;;;;25.50;16.25;;;;;;;4.57;100.00;99999.03;5095725;28;20135;-36
2021/12/27 08:18:37;;;;;;;22.15;16.25;;;;;;;4.57;100.00;100000.91;5095646;28;20066;-37
2021/12/27 08:21:03;;;;;;;22.75;16.35;;;;;;;4.57;100.00;100003.56;5095371;28;20024;-37
2021/12/27 08:23:29;;;;;;;22.08;15.40;;;;;;;4.59;100.00;100010.38;5095069;28;20062;-36
2021/12/27 08:25:54;;;;;;;22.80;16.73;;;;;;;4.62;100.00;100019.81;5095253;28;20028;-37
2021/12/27 08:28:20;;;;;;;24.33;16.07;;;;;;;4.64;100.00;100010.56;5095545;28;20028;-37
2021/12/27 08:30:45;;;;;;;21.03;15.47;;;;;;;4.65;100.00;100009.53;5094944;28;20035;-37
2021/12/27 08:33:11;;;;;;;20.55;15.15;;;;;;;4.69;100.00;100012.59;5095139;28;20028;-37
2021/12/27 08:35:37;;;;;;;19.17;15.02;;;;;;;4.71;100.00;100007.03;5094866;28;20028;-37
2021/12/27 08:38:03;;;;;;;25.27;16.45;;;;;;;4.69;100.00;99996.53;5095524;28;20049;-36
2021/12/27 08:40:28;;;;;;;24.55;15.60;;;;;;;4.72;100.00;99998.78;5095571;28;20040;-36
2021/12/27 08:42:54;;;;;;;21.17;14.60;;;;;;;4.72;100.00;100003.31;5095026;28;20051;-36
2021/12/27 08:45:20;;;;;;;22.67;15.55;;;;;;;4.75;100.00;99993.00;5094430;28;20526;-36
2021/12/27 08:47:46;;;;;;;26.40;17.05;;;;;;;4.74;100.00;99993.22;5095122;28;20065;-36
2021/12/27 08:50:12;;;;;;;22.25;15.55;;;;;;;4.69;100.00;99975.13;5095188;28;20024;-37
2021/12/27 08:52:39;;;;;;;20.90;14.70;;;;;;;4.79;100.00;99986.19;5094337;28;20035;-36
2021/12/27 08:55:05;;;;;;;20.63;15.52;;;;;;;4.79;100.00;99986.19;5094812;28;20035;-36
2021/12/27 08:57:32;;;;;;;22.85;15.90;;;;;;;4.80;100.00;99985.13;5094938;28;20032;-36
2021/12/27 08:59:57;;;;;;;22.73;15.23;;;;;;;4.82;100.00;99969.66;5094776;28;20036;-36
2021/12/27 09:02:22;;;;;;;21.03;15.33;;;;;;;4.82;100.00;99975.03;5095065;28;20444;-36
2021/12/27 09:04:48;;;;;;;23.03;15.47;;;;;;;4.84;100.00;99961.44;5094780;28;20024;-37
2021/12/27 09:07:15;;;;;;;25.10;17.43;;;;;;;4.74;100.00;99942.34;5094241;28;20024;-36
2021/12/27 09:09:40;;;;;;;22.27;17.02;;;;;;;4.84;100.00;99953.41;5094249;28;20031;-36
2021/12/27 09:12:08;;;;;;;27.77;19.23;;;;;;;4.79;100.00;99945.19;5094238;28;20072;-36
2021/12/27 09:14:33;;;;;;;23.08;16.95;;;;;;;4.79;100.00;99935.28;5094686;28;20052;-37
2021/12/27 09:16:58;;;;;;;24.00;16.57;;;;;;;4.87;100.00;99945.72;5093907;28;20089;-37
2021/12/27 09:19:24;;;;;;;22.90;15.90;;;;;;;4.82;100.00;99937.53;5094174;28;20023;-36
2021/12/27 09:21:51;;;;;;;22.37;16.43;;;;;;;4.93;100.00;99945.91;5094181;28;20028;-37
2021/12/27 09:24:16;;;;;;;25.25;17.02;;;;;;;4.88;100.00;99952.75;5093813;28;20024;-37
2021/12/27 09:26:42;;;;;;;26.00;16.65;;;;;;;4.95;100.00;99962.59;5094059;28;20085;-37
2021/12/27 09:29:07;;;;;;;22.07;15.07;;;;;;;4.94;100.00;99969.81;5094946;28;20028;-37
2021/12/27 09:31:33;;;;;;;19.50;14.27;;;;;;;4.81;100.00;99961.84;5094011;28;20112;-37
2021/12/27 09:33:58;;;;;;;21.03;15.00;;;;;;;4.81;100.00;99965.34;5094252;28;20527;-36
2021/12/27 09:36:23;;;;;;;20.00;13.07;;;;;;;4.85;100.00;99974.59;5093920;28;20039;-37
2021/12/27 09:38:49;;;;;;;20.40;14.30;;;;;;;4.78;100.00;99959.59;5094637;28;20341;-36
2021/12/27 09:41:14;;;;;;;21.37;14.33;;;;;;;4.91;100.00;99975.59;5093470;28;20024;-37
2021/12/27 09:43:40;;;;;;;18.43;13.70;;;;;;;4.88;100.00;99963.47;5093750;28;20078;-36
2021/12/27 09:46:06;;;;;;;22.10;15.60;;;;;;;4.98;100.00;99965.69;5093804;28;20111;-36
2021/12/27 09:48:32;;;;;;;;;;;;;;;5.03;100.00;99965.84;5094105;28;20028;-36
2021/12/27 09:50:58;;;;;;;18.27;13.30;;;;;;;5.05;100.00;99962.94;5093738;28;19908;-36
2021/12/27 09:53:23;;;;;;;19.15;13.90;;;;;;;5.09;100.00;99956.13;5093874;28;20365;-36
2021/12/27 09:55:49;;;;;;;19.15;15.35;;;;;;;5.10;100.00;99942.50;5093695;28;20061;-36
2021/12/27 09:58:14;;;;;;;20.40;14.97;;;;;;;5.04;100.00;99931.84;5093590;28;20035;-37
2021/12/27 10:00:42;;;;;;;20.00;15.17;;;;;;;4.95;100.00;99927.78;5093914;28;20028;-37
2021/12/27 10:03:09;;;;;;;20.33;14.88;;;;;;;5.09;100.00;99942.72;5093423;28;20032;-37
2021/12/27 10:05:35;;;;;;;19.20;13.82;;;;;;;5.11;100.00;99940.63;5093154;28;20024;-37
2021/12/27 10:08:01;;;;;;;20.20;15.77;;;;;;;5.10;100.00;99942.50;5093514;28;20051;-36
2021/12/27 10:10:26;;;;;;;20.58;15.43;;;;;;;5.04;100.00;99934.50;5092323;28;20043;-36
2021/12/27 10:12:53;;;;;;;23.38;17.25;;;;;;;5.09;100.00;99942.72;5093271;28;20059;-36
2021/12/27 10:15:22;;;;;;;23.33;15.40;;;;;;;5.11;100.00;99929.91;5093015;28;20521;-37
2021/12/27 10:17:49;;;;;;;22.13;16.75;;;;;;;5.10;100.00;99912.19;5093218;28;20107;-36
2021/12/27 10:20:20;;;;;;;24.95;18.80;;;;;;;5.08;100.00;99900.88;5092893;28;20031;-37
2021/12/27 10:22:48;;;;;;;20.80;16.58;;;;;;;5.17;100.00;99896.88;5093240;28;20027;-36
2021/12/27 10:25:16;;;;;;;22.90;17.73;;;;;;;5.19;100.00;99888.63;5093429;28;20144;-36
2021/12/27 10:27:42;;;;;;;24.17;18.20;;;;;;;5.16;100.00;99889.88;5093609;28;20042;-36
2021/12/27 10:30:10;;;;;;;22.77;17.95;;;;;;;5.07;100.00;99883.16;5093537;28;20031;-37
2021/12/27 10:32:35;;;;;;;21.92;17.27;;;;;;;4.99;100.00;99878.06;5093060;28;20054;-36
2021/12/27 10:35:05;;;;;;;24.03;17.87;;;;;;;5.05;100.00;99893.28;5093172;28;20452;-37
2021/12/27 10:37:32;;;;;;;20.08;16.75;;;;;;;5.11;100.00;99919.19;5092696;28;20441;-36
2021/12/27 10:40:02;;;;;;;21.67;17.05;;;;;;;5.11;100.00;99913.84;5093319;28;20043;-36
2021/12/27 10:42:40;;;;;;;24.17;17.40;;;;;;;5.12;100.00;99910.97;5093755;28;20156;-37
2021/12/27 10:45:11;;;;;;;20.83;17.25;;;;;;;5.17;100.00;99912.94;5092210;28;20101;-36
2021/12/27 10:47:36;;;;;;;23.05;16.55;;;;;;;5.23;100.00;99905.94;5092935;28;20024;-36
2021/12/27 10:50:09;;;;;;;21.03;16.00;;;;;;;5.30;100.00;99899.44;5093194;28;20028;-36
2021/12/27 10:52:51;;;;;;;19.77;14.43;;;;;;;5.36;100.00;99895.88;5093470;28;20028;-36
2021/12/27 10:55:39;;;;;;;20.85;15.20;;;;;;;5.37;100.00;99894.06;5093376;28;20434;-36
2021/12/27 10:58:18;;;;;;;15.80;13.13;;;;;;;5.49;100.00;99899.50;5092849;28;20044;-37
2021/12/27 11:00:45;;;;;;;19.55;14.32;;;;;;;5.53;100.00;99896.16;5092557;28;20032;-36
2021/12/27 11:03:28;;;;;;;17.13;13.45;;;;;;;5.60;100.00;99901.44;5092777;28;20036;-36
2021/12/27 11:05:54;;;;;;;18.35;13.15;;;;;;;5.65;100.00;99896.25;5092687;28;20036;-36
2021/12/27 11:08:20;;;;;;;17.27;13.15;;;;;;;5.71;100.00;99889.16;5092786;28;20052;-36
2021/12/27 11:10:46;;;;;;;17.80;12.73;;;;;;;5.83;100.00;99885.53;5093521;28;20063;-36
2021/12/27 11:13:11;;;;;;;15.18;12.48;;;;;;;5.82;100.00;99870.47;5091191;28;20051;-37
2021/12/27 11:15:37;;;;;;;16.25;12.52;;;;;;;5.90;100.00;99888.97;5092746;28;20032;-37